createdAt,value
2018-11-27T00:01:31.624Z,100358.94
2018-11-27T00:04:01.677Z,100358.11
2018-11-27T00:06:31.580Z,100353.09
2018-11-27T00:09:01.568Z,100356.43
2018-11-27T00:11:31.485Z,100365.38
2018-11-27T00:14:01.348Z,100353.82
2018-11-27T00:16:31.369Z,100361.28
2018-11-27T00:19:01.377Z,100358.67
2018-11-27T00:21:31.268Z,100355.09
2018-11-27T00:24:01.239Z,100359.87
2018-11-27T00:26:31.450Z,100361.50
2018-11-27T00:29:10.589Z,100358.47
2018-11-27T00:31:40.556Z,100362.84
2018-11-27T00:34:10.545Z,100371.16
2018-11-27T00:36:40.413Z,100369.26
2018-11-27T00:39:12.854Z,100371.27
2018-11-27T00:41:43.557Z,100372.66
2018-11-27T00:44:13.461Z,100371.77
2018-11-27T00:46:43.308Z,100369.48
2018-11-27T00:49:13.405Z,100378.51
2018-11-27T00:51:43.365Z,100380.37
2018-11-27T00:54:13.347Z,100384.36
2018-11-27T00:56:43.208Z,100381.94
2018-11-27T00:59:13.107Z,100394.58
2018-11-27T01:01:43.048Z,100386.27
2018-11-27T01:04:12.964Z,100398.38
2018-11-27T01:06:42.995Z,100401.62
2018-11-27T01:09:12.926Z,100401.23
2018-11-27T01:11:43.173Z,100400.34
2018-11-27T01:14:13.123Z,100402.45
2018-11-27T01:16:43.058Z,100400.88
2018-11-27T01:19:13.035Z,100408.03
2018-11-27T01:21:43.006Z,100403.76
2018-11-27T01:24:13.008Z,100405.96
2018-11-27T01:26:43.267Z,100406.67
2018-11-27T01:29:13.105Z,100403.40
2018-11-27T01:31:43.073Z,100403.80
2018-11-27T01:34:13.417Z,100410.92
2018-11-27T01:36:43.740Z,100406.67
2018-11-27T01:39:13.601Z,100411.11
2018-11-27T01:41:43.570Z,100412.89
2018-11-27T01:44:13.527Z,100417.56
2018-11-27T01:46:43.509Z,100414.20
2018-11-27T01:49:13.652Z,100407.84
2018-11-27T01:51:43.663Z,100409.19
2018-11-27T01:54:13.695Z,100417.18
2018-11-27T01:56:43.556Z,100416.27
2018-11-27T01:59:13.584Z,100416.68
2018-11-27T02:01:43.444Z,100411.62
2018-11-27T02:04:13.444Z,100413.10
2018-11-27T02:06:43.349Z,100413.66
2018-11-27T02:09:13.354Z,100406.55
2018-11-27T02:11:43.250Z,100420.83
2018-11-27T02:14:13.253Z,100416.64
2018-11-27T02:16:43.238Z,100420.63
2018-11-27T02:19:13.181Z,100418.89
2018-11-27T02:21:43.144Z,100423.33
2018-11-27T02:24:13.037Z,100424.34
2018-11-27T02:26:42.915Z,100424.34
2018-11-27T02:29:12.979Z,100432.83
2018-11-27T02:31:43.019Z,100432.12
2018-11-27T02:34:13.067Z,100437.70
2018-11-27T02:36:43.044Z,100439.98
2018-11-27T02:39:13.106Z,100440.13
2018-11-27T02:41:43.006Z,100449.58
2018-11-27T02:44:12.917Z,100445.89
2018-11-27T02:46:42.945Z,100450.92
2018-11-27T02:49:12.887Z,100448.27
2018-11-27T02:51:42.765Z,100450.63
2018-11-27T02:54:12.647Z,100457.85
2018-11-27T02:56:42.627Z,100451.18
2018-11-27T02:59:12.507Z,100460.03
2018-11-27T03:01:58.892Z,100457.24
2018-11-27T03:04:28.751Z,100456.38
2018-11-27T03:06:58.732Z,100456.83
2018-11-27T03:09:28.600Z,100457.70
2018-11-27T03:11:58.542Z,100464.75
2018-11-27T03:14:28.766Z,100463.39
2018-11-27T03:16:58.710Z,100458.98
2018-11-27T03:19:28.621Z,100460.86
2018-11-27T03:21:58.627Z,100459.03
2018-11-27T03:24:28.619Z,100454.70
2018-11-27T03:26:58.538Z,100454.43
2018-11-27T03:29:28.515Z,100458.64
2018-11-27T03:31:58.360Z,100459.17
2018-11-27T03:34:28.329Z,100462.52
2018-11-27T03:36:58.241Z,100462.33
2018-11-27T03:39:28.219Z,100455.67
2018-11-27T03:41:58.224Z,100465.59
2018-11-27T03:44:28.170Z,100459.83
2018-11-27T03:46:58.017Z,100474.97
2018-11-27T03:49:27.952Z,100478.73
2018-11-27T03:51:58.037Z,100477.44
2018-11-27T03:54:27.904Z,100480.94
2018-11-27T03:56:57.908Z,100483.00
2018-11-27T03:59:27.804Z,100488.14
2018-11-27T04:01:57.749Z,100487.34
2018-11-27T04:04:27.623Z,100489.55
2018-11-27T04:06:57.715Z,100491.20
2018-11-27T04:09:27.744Z,100491.13
2018-11-27T04:11:57.644Z,100497.92
2018-11-27T04:14:27.640Z,100494.08
2018-11-27T04:16:57.489Z,100494.91
2018-11-27T04:19:27.561Z,100497.86
2018-11-27T04:21:59.887Z,100499.09
2018-11-27T04:24:31.229Z,100505.89
2018-11-27T04:27:01.593Z,100503.38
2018-11-27T04:29:32.929Z,100508.80
2018-11-27T04:32:02.996Z,100503.41
2018-11-27T04:34:33.131Z,100508.08
2018-11-27T04:37:03.907Z,100514.60
2018-11-27T04:39:35.125Z,100509.01
2018-11-27T04:42:05.176Z,100511.28
2018-11-27T04:44:35.126Z,100510.31
2018-11-27T04:47:04.980Z,100509.52
2018-11-27T04:49:36.154Z,100514.38
2018-11-27T04:52:06.519Z,100516.46
2018-11-27T04:54:36.517Z,100506.45
2018-11-27T04:57:06.539Z,100515.41
2018-11-27T04:59:36.469Z,100510.08
2018-11-27T05:02:07.043Z,100511.48
2018-11-27T05:04:37.383Z,100514.94
2018-11-27T05:07:08.392Z,100511.48
2018-11-27T05:09:38.452Z,100512.45
2018-11-27T05:12:08.472Z,100516.61
2018-11-27T05:14:38.374Z,100519.37
2018-11-27T05:17:10.130Z,100527.25
2018-11-27T05:19:40.422Z,100526.95
2018-11-27T05:22:10.900Z,100530.80
2018-11-27T05:24:46.214Z,100530.75
2018-11-27T05:27:16.305Z,100531.25
2018-11-27T05:29:47.061Z,100537.45
2018-11-27T05:32:17.114Z,100546.85
2018-11-27T05:34:48.902Z,100551.31
2018-11-27T05:37:19.031Z,100550.84
2018-11-27T05:39:50.614Z,100552.80
2018-11-27T05:42:27.781Z,100555.28
2018-11-27T05:44:59.604Z,100553.23
2018-11-27T05:47:30.705Z,100555.04
2018-11-27T05:50:02.833Z,100549.46
2018-11-27T05:52:33.758Z,100557.27
2018-11-27T05:55:04.000Z,100562.41
2018-11-27T05:57:35.489Z,100563.64
2018-11-27T06:00:12.702Z,100565.73
2018-11-27T06:02:46.886Z,100570.14
2018-11-27T06:05:19.319Z,100575.23
2018-11-27T06:07:49.576Z,100581.92
2018-11-27T06:10:20.506Z,100589.97
2018-11-27T06:12:50.842Z,100591.33
2018-11-27T06:15:23.081Z,100593.36
2018-11-27T06:17:54.444Z,100595.19
2018-11-27T06:20:26.687Z,100592.59
2018-11-27T06:22:58.153Z,100590.15
2018-11-27T06:25:34.647Z,100596.59
2018-11-27T06:28:08.518Z,100595.70
2018-11-27T06:30:38.623Z,100609.79
2018-11-27T06:33:08.538Z,100607.63
2018-11-27T06:35:40.931Z,100610.37
2018-11-27T06:38:12.200Z,100613.41
2018-11-27T06:40:43.285Z,100614.46
2018-11-27T06:43:14.214Z,100620.83
2018-11-27T06:45:45.165Z,100624.76
2018-11-27T06:48:15.717Z,100633.65
2018-11-27T06:50:45.745Z,100634.09
2018-11-27T06:53:17.438Z,100639.30
2018-11-27T06:55:49.923Z,100641.80
2018-11-27T06:58:20.053Z,100647.55
2018-11-27T07:00:50.703Z,100652.48
2018-11-27T07:03:20.888Z,100662.70
2018-11-27T07:05:50.836Z,100671.25
2018-11-27T07:08:20.960Z,100672.47
2018-11-27T07:10:50.903Z,100667.89
2018-11-27T07:13:22.531Z,100673.49
2018-11-27T07:15:52.836Z,100677.27
2018-11-27T07:18:22.853Z,100689.09
2018-11-27T07:20:53.562Z,100690.79
2018-11-27T07:23:23.574Z,100691.98
2018-11-27T07:25:53.882Z,100696.94
2018-11-27T07:28:23.849Z,100697.90
2018-11-27T07:30:53.918Z,100694.60
2018-11-27T07:33:23.945Z,100694.00
2018-11-27T07:35:54.536Z,100695.08
2018-11-27T07:38:24.479Z,100704.39
2018-11-27T07:40:54.541Z,100708.79
2018-11-27T07:43:25.065Z,100711.20
2018-11-27T07:45:55.396Z,100713.00
2018-11-27T07:48:27.086Z,100720.52
2018-11-27T07:50:57.616Z,100725.23
2018-11-27T07:53:27.603Z,100731.22
2018-11-27T07:55:57.818Z,100735.00
2018-11-27T07:58:29.076Z,100744.83
2018-11-27T08:00:59.216Z,100748.13
2018-11-27T08:03:32.565Z,100749.31
2018-11-27T08:06:02.540Z,100754.84
2018-11-27T08:08:32.506Z,100755.75
2018-11-27T08:11:02.520Z,100760.62
2018-11-27T08:13:32.503Z,100761.13
2018-11-27T08:16:02.522Z,100761.62
2018-11-27T08:18:45.460Z,100769.64
2018-11-27T08:21:16.680Z,100773.20
2018-11-27T08:23:46.673Z,100778.42
2018-11-27T08:26:16.570Z,100773.27
2018-11-27T08:28:46.600Z,100785.67
2018-11-27T08:31:16.667Z,100780.44
2018-11-27T08:33:48.485Z,100779.55
2018-11-27T08:36:20.031Z,100781.45
2018-11-27T08:38:50.153Z,100778.57
2018-11-27T08:41:22.681Z,100781.59
2018-11-27T08:43:53.776Z,100789.86
2018-11-27T08:46:23.800Z,100787.57
2018-11-27T08:48:53.906Z,100802.48
2018-11-27T08:51:23.859Z,100795.59
2018-11-27T08:53:53.938Z,100805.02
2018-11-27T08:56:23.868Z,100801.16
2018-11-27T08:58:53.934Z,100808.73
2018-11-27T09:01:23.908Z,100799.03
2018-11-27T09:03:54.657Z,100804.23
2018-11-27T09:06:24.627Z,100811.83
2018-11-27T09:08:54.709Z,100813.69
2018-11-27T09:11:24.629Z,100818.18
2018-11-27T09:13:54.602Z,100823.16
2018-11-27T09:16:24.459Z,100820.13
2018-11-27T09:18:54.487Z,100816.63
2018-11-27T09:21:24.437Z,100819.02
2018-11-27T09:23:54.416Z,100819.89
2018-11-27T09:26:24.308Z,100826.04
2018-11-27T09:28:54.291Z,100837.14
2018-11-27T09:31:24.199Z,100843.22
2018-11-27T09:33:55.111Z,100846.19
2018-11-27T09:36:24.957Z,100854.38
2018-11-27T09:38:55.942Z,100846.98
2018-11-27T09:41:25.873Z,100852.59
2018-11-27T09:43:56.798Z,100852.80
2018-11-27T09:46:26.712Z,100850.08
2018-11-27T09:48:56.727Z,100856.88
2018-11-27T09:51:26.704Z,100860.09
2018-11-27T09:53:56.784Z,100857.09
2018-11-27T09:56:26.724Z,100854.11
2018-11-27T09:58:56.688Z,100849.82
2018-11-27T10:01:26.721Z,100853.23
2018-11-27T10:03:56.722Z,100856.76
2018-11-27T10:06:26.676Z,100855.52
2018-11-27T10:08:56.798Z,100856.95
2018-11-27T10:11:26.821Z,100857.99
2018-11-27T10:13:56.801Z,100851.00
2018-11-27T10:16:26.897Z,100857.36
2018-11-27T10:18:56.910Z,100860.25
2018-11-27T10:21:26.808Z,100857.65
2018-11-27T10:23:56.839Z,100857.23
2018-11-27T10:26:26.744Z,100850.48
2018-11-27T10:28:56.660Z,100853.66
2018-11-27T10:31:26.533Z,100854.88
2018-11-27T10:33:56.559Z,100861.30
2018-11-27T10:36:26.549Z,100869.10
2018-11-27T10:39:00.987Z,100872.93
2018-11-27T10:41:26.783Z,100869.62
2018-11-27T10:43:56.648Z,100865.73
2018-11-27T10:46:28.461Z,100863.59
2018-11-27T10:49:00.073Z,100858.33
2018-11-27T10:51:30.239Z,100862.47
2018-11-27T10:54:00.233Z,100869.34
2018-11-27T10:56:30.131Z,100871.17
2018-11-27T10:59:00.197Z,100886.69
2018-11-27T11:01:34.997Z,100893.27
2018-11-27T11:04:06.106Z,100891.37
2018-11-27T11:06:36.202Z,100893.06
2018-11-27T11:09:08.769Z,100886.86
2018-11-27T11:11:39.185Z,100890.48
2018-11-27T11:14:09.230Z,100888.02
2018-11-27T11:16:39.238Z,100879.16
2018-11-27T11:19:09.604Z,100874.08
2018-11-27T11:21:39.627Z,100886.70
2018-11-27T11:24:09.596Z,100886.20
2018-11-27T11:26:40.347Z,100886.92
2018-11-27T11:29:10.441Z,100890.72
2018-11-27T11:31:40.335Z,100894.81
2018-11-27T11:34:10.595Z,100891.80
2018-11-27T11:36:40.577Z,100893.84
2018-11-27T11:39:12.956Z,100896.12
2018-11-27T11:41:42.981Z,100899.17
2018-11-27T11:44:13.974Z,100897.41
2018-11-27T11:46:47.060Z,100900.42
2018-11-27T11:49:18.861Z,100901.66
2018-11-27T11:51:48.905Z,100897.02
2018-11-27T11:54:18.877Z,100897.98
2018-11-27T11:56:49.355Z,100901.99
2018-11-27T11:59:19.572Z,100912.02
2018-11-27T12:01:50.998Z,100908.63
2018-11-27T12:04:23.254Z,100914.48
2018-11-27T12:06:53.387Z,100922.80
2018-11-27T12:09:25.920Z,100922.33
2018-11-27T12:11:55.899Z,100921.59
2018-11-27T12:14:26.252Z,100920.79
2018-11-27T12:16:56.592Z,100920.79
2018-11-27T12:19:26.845Z,100922.59
2018-11-27T12:21:56.825Z,100911.47
2018-11-27T12:24:26.719Z,100923.52
2018-11-27T12:26:56.852Z,100921.73
2018-11-27T12:29:27.317Z,100932.41
2018-11-27T12:31:57.278Z,100931.59
2018-11-27T12:34:27.243Z,100933.39
2018-11-27T12:36:57.506Z,100933.16
2018-11-27T12:39:27.475Z,100937.88
2018-11-27T12:41:59.005Z,100944.28
2018-11-27T12:44:28.932Z,100945.81
2018-11-27T12:46:59.022Z,100943.02
2018-11-27T12:49:29.005Z,100947.18
2018-11-27T12:51:58.845Z,100951.60
2018-11-27T12:54:29.027Z,100954.72
2018-11-27T12:56:59.147Z,100958.63
2018-11-27T12:59:29.213Z,100958.56
2018-11-27T13:02:00.058Z,100960.38
2018-11-27T13:04:30.054Z,100963.34
2018-11-27T13:07:00.022Z,100962.28
2018-11-27T13:09:30.076Z,100961.23
2018-11-27T13:12:00.148Z,100963.08
2018-11-27T13:14:30.228Z,100961.91
2018-11-27T13:17:00.148Z,100960.37
2018-11-27T13:19:30.115Z,100961.35
2018-11-27T13:22:00.207Z,100957.42
2018-11-27T13:24:30.245Z,100962.37
2018-11-27T13:27:00.467Z,100964.84
2018-11-27T13:29:30.597Z,100974.06
2018-11-27T13:32:03.633Z,100977.42
2018-11-27T13:37:38.610Z,100984.10
2018-11-27T13:40:10.608Z,100992.80
2018-11-27T13:42:40.892Z,100997.52
2018-11-27T13:45:16.736Z,100987.15
2018-11-27T13:47:46.807Z,100993.41
2018-11-27T13:50:18.126Z,100989.28
2018-11-27T13:52:48.682Z,100994.92
2018-11-27T13:55:21.769Z,100992.20
2018-11-27T13:57:51.811Z,100993.95
2018-11-27T14:00:22.096Z,100994.00
2018-11-27T14:02:55.638Z,100985.77
2018-11-27T14:05:26.725Z,100995.47
2018-11-27T14:07:57.098Z,100993.56
2018-11-27T14:10:27.121Z,100993.36
2018-11-27T14:12:57.011Z,101002.84
2018-11-27T14:15:27.221Z,101007.84
2018-11-27T14:17:57.574Z,101004.50
2018-11-27T14:20:27.605Z,101009.48
2018-11-27T14:22:57.616Z,101007.79
2018-11-27T14:25:27.725Z,101008.00
2018-11-27T14:27:57.627Z,101008.49
2018-11-27T14:30:28.080Z,101012.89
2018-11-27T14:32:58.152Z,101017.80
2018-11-27T14:35:28.607Z,101023.36
2018-11-27T14:37:58.765Z,101018.92
2018-11-27T14:40:30.455Z,101017.41
2018-11-27T14:43:00.512Z,101025.02
2018-11-27T14:45:30.553Z,101029.79
2018-11-27T14:48:01.058Z,101032.30
2018-11-27T14:50:31.040Z,101030.41
2018-11-27T14:53:01.163Z,101030.61
2018-11-27T14:55:32.812Z,101038.46
2018-11-27T14:58:02.842Z,101037.98
2018-11-27T15:00:32.920Z,101032.30
2018-11-27T15:03:02.881Z,101029.36
2018-11-27T15:05:35.366Z,101037.80
2018-11-27T15:08:06.983Z,101036.92
2018-11-27T15:10:38.519Z,101039.19
2018-11-27T15:13:09.793Z,101032.78
2018-11-27T15:15:40.227Z,101044.00
2018-11-27T15:18:11.687Z,101048.55
2018-11-27T15:20:42.048Z,101053.36
2018-11-27T15:23:12.125Z,101050.17
2018-11-27T15:25:45.728Z,101054.39
2018-11-27T15:28:15.649Z,101056.22
2018-11-27T15:30:45.707Z,101053.89
2018-11-27T15:33:18.704Z,101065.02
2018-11-27T15:35:45.917Z,101063.55
2018-11-27T15:38:15.941Z,101067.48
2018-11-27T15:40:46.021Z,101065.93
2018-11-27T15:43:16.071Z,101075.75
2018-11-27T15:45:46.048Z,101075.66
2018-11-27T15:48:16.125Z,101078.63
2018-11-27T15:50:46.002Z,101082.17
2018-11-27T15:53:16.157Z,101080.32
2018-11-27T15:55:46.291Z,101079.66
2018-11-27T15:58:16.519Z,101086.19
2018-11-27T16:00:49.780Z,101091.58
2018-11-27T16:03:20.204Z,101093.06
2018-11-27T16:05:50.220Z,101096.17
2018-11-27T16:08:20.337Z,101094.08
2018-11-27T16:10:50.417Z,101100.61
2018-11-27T16:13:20.621Z,101110.67
2018-11-27T16:15:50.720Z,101108.97
2018-11-27T16:18:21.712Z,101105.66
2018-11-27T16:20:51.678Z,101101.33
2018-11-27T16:23:21.800Z,101104.80
2018-11-27T16:25:51.823Z,101103.53
2018-11-27T16:28:21.962Z,101109.66
2018-11-27T16:30:52.007Z,101112.69
2018-11-27T16:33:22.127Z,101117.45
2018-11-27T16:35:52.328Z,101111.86
2018-11-27T16:38:22.379Z,101116.61
2018-11-27T16:40:53.021Z,101120.88
2018-11-27T16:43:23.113Z,101123.28
2018-11-27T16:45:53.626Z,101120.64
2018-11-27T16:48:24.485Z,101120.17
2018-11-27T16:50:54.657Z,101122.81
2018-11-27T16:53:24.716Z,101125.01
2018-11-27T16:55:54.721Z,101131.56
2018-11-27T16:58:24.670Z,101139.81
2018-11-27T17:00:54.771Z,101134.69
2018-11-27T17:03:24.792Z,101139.05
2018-11-27T17:05:54.834Z,101145.53
2018-11-27T17:08:25.007Z,101142.11
2018-11-27T17:10:55.347Z,101136.09
2018-11-27T17:13:26.108Z,101127.94
2018-11-27T17:18:46.240Z,101135.63
2018-11-27T17:21:16.221Z,101141.71
2018-11-27T17:23:51.253Z,101142.64
2018-11-27T17:26:21.273Z,101142.64
2018-11-27T17:28:51.503Z,101143.80
2018-11-27T17:31:21.538Z,101147.89
2018-11-27T17:33:56.541Z,101148.39
2018-11-27T17:36:27.591Z,101148.45
2018-11-27T17:38:58.030Z,101158.43
2018-11-27T17:41:28.295Z,101161.05
2018-11-27T17:43:58.436Z,101163.62
2018-11-27T17:46:28.339Z,101166.61
2018-11-27T17:48:58.340Z,101167.45
2018-11-27T17:51:28.265Z,101178.66
2018-11-27T17:53:58.304Z,101175.63
2018-11-27T17:56:29.507Z,101173.99
2018-11-27T17:58:59.553Z,101180.88
2018-11-27T18:01:29.662Z,101176.13
2018-11-27T18:03:59.647Z,101186.09
2018-11-27T18:06:29.880Z,101178.38
2018-11-27T18:08:59.842Z,101176.67
2018-11-27T18:11:30.329Z,101179.39
2018-11-27T18:14:01.165Z,101181.98
2018-11-27T18:16:31.519Z,101181.98
2018-11-27T18:19:01.663Z,101187.20
2018-11-27T18:21:31.920Z,101184.14
2018-11-27T18:24:03.684Z,101183.31
2018-11-27T18:26:33.572Z,101183.80
2018-11-27T18:29:03.586Z,101182.08
2018-11-27T18:31:33.530Z,101186.86
2018-11-27T18:34:14.066Z,101198.09
2018-11-27T18:36:44.024Z,101200.31
2018-11-27T18:39:13.927Z,101205.53
2018-11-27T18:41:44.112Z,101197.86
2018-11-27T18:44:14.149Z,101206.97
2018-11-27T18:46:44.108Z,101208.26
2018-11-27T18:49:14.309Z,101203.13
2018-11-27T18:51:46.549Z,101191.98
2018-11-27T18:54:17.587Z,101195.48
2018-11-27T18:56:49.595Z,101200.73
2018-11-27T18:59:22.174Z,101195.56
2018-11-27T19:01:54.161Z,101193.03
2018-11-27T19:04:26.156Z,101200.77
2018-11-27T19:06:58.272Z,101198.56
2018-11-27T19:09:30.076Z,101196.45
2018-11-27T19:12:01.652Z,101200.40
2018-11-27T19:14:34.160Z,101205.56
2018-11-27T19:17:04.855Z,101198.72
2018-11-27T19:19:36.586Z,101199.61
2018-11-27T19:22:08.298Z,101205.30
2018-11-27T19:24:39.528Z,101207.97
2018-11-27T19:27:09.526Z,101212.33
2018-11-27T19:29:39.392Z,101221.88
2018-11-27T19:32:09.475Z,101224.93
2018-11-27T19:34:39.539Z,101231.49
2018-11-27T19:37:13.818Z,101247.11
2018-11-27T19:39:44.234Z,101258.38
2018-11-27T19:42:15.051Z,101265.34
2018-11-27T19:44:46.637Z,101282.62
2018-11-27T19:47:18.843Z,101288.20
2018-11-27T19:52:40.831Z,101283.61
2018-11-27T19:55:14.419Z,101291.91
2018-11-27T19:57:48.390Z,101298.37
2018-11-27T20:00:22.564Z,101296.20
2018-11-27T20:02:52.696Z,101299.23
2018-11-27T20:05:23.975Z,101299.28
2018-11-27T20:07:54.067Z,101291.25
2018-11-27T20:10:24.051Z,101290.06
2018-11-27T20:12:54.161Z,101291.82
2018-11-27T20:15:27.679Z,101284.93
2018-11-27T20:17:59.572Z,101282.80
2018-11-27T20:20:30.476Z,101288.28
2018-11-27T20:23:00.685Z,101287.25
2018-11-27T20:25:31.214Z,101294.14
2018-11-27T20:28:01.320Z,101299.41
2018-11-27T20:30:31.491Z,101305.95
2018-11-27T20:33:04.488Z,101309.06
2018-11-27T20:35:34.797Z,101315.63
2018-11-27T20:38:08.108Z,101315.25
2018-11-27T20:40:38.348Z,101312.26
2018-11-27T20:43:09.081Z,101313.53
2018-11-27T20:45:39.356Z,101319.52
2018-11-27T20:48:26.611Z,101314.33
2018-11-27T20:50:56.818Z,101316.05
2018-11-27T20:53:27.020Z,101317.82
2018-11-27T20:55:57.034Z,101318.33
2018-11-27T20:58:26.989Z,101324.84
2018-11-27T21:00:57.263Z,101329.56
2018-11-27T21:03:27.166Z,101326.98
2018-11-27T21:05:57.167Z,101331.67
2018-11-27T21:08:27.151Z,101331.73
2018-11-27T21:10:57.144Z,101334.38
2018-11-27T21:13:27.079Z,101342.16
2018-11-27T21:15:57.088Z,101344.79
2018-11-27T21:18:27.064Z,101345.20
2018-11-27T21:20:57.110Z,101341.73
2018-11-27T21:23:27.036Z,101334.41
2018-11-27T21:26:01.226Z,101331.00
2018-11-27T21:28:31.639Z,101324.63
2018-11-27T21:31:01.575Z,101326.80
2018-11-27T21:33:32.319Z,101330.27
2018-11-27T21:36:02.277Z,101325.01
2018-11-27T21:38:32.369Z,101325.80
2018-11-27T21:41:02.613Z,101330.89
2018-11-27T21:43:32.699Z,101336.03
2018-11-27T21:46:02.608Z,101346.28
2018-11-27T21:48:33.364Z,101345.00
2018-11-27T21:51:03.445Z,101354.12
2018-11-27T21:53:33.408Z,101346.02
2018-11-27T21:56:03.409Z,101350.85
2018-11-27T21:58:33.364Z,101352.16
2018-11-27T22:01:03.379Z,101358.64
2018-11-27T22:03:34.192Z,101354.34
2018-11-27T22:06:04.184Z,101356.50
2018-11-27T22:08:34.172Z,101363.81
2018-11-27T22:11:04.188Z,101372.06
2018-11-27T22:13:34.150Z,101372.50
2018-11-27T22:16:04.159Z,101366.50
2018-11-27T22:18:34.800Z,101370.38
2018-11-27T22:21:04.856Z,101365.62
2018-11-27T22:23:52.721Z,101366.01
2018-11-27T22:26:22.721Z,101364.32
2018-11-27T22:28:52.687Z,101367.85
2018-11-27T22:31:22.784Z,101362.66
2018-11-27T22:33:52.722Z,101360.41
2018-11-27T22:36:22.806Z,101368.08
2018-11-27T22:38:52.779Z,101366.36
2018-11-27T22:41:22.789Z,101368.53
2018-11-27T22:43:52.779Z,101368.13
2018-11-27T22:46:22.808Z,101374.19
2018-11-27T22:48:52.804Z,101376.34
2018-11-27T22:51:22.749Z,101367.29
2018-11-27T22:53:52.682Z,101357.84
2018-11-27T22:56:22.818Z,101358.74
2018-11-27T22:58:52.898Z,101369.08
2018-11-27T23:01:22.852Z,101361.80
2018-11-27T23:03:53.222Z,101365.28
2018-11-27T23:06:23.248Z,101368.33
2018-11-27T23:08:53.123Z,101370.92
2018-11-27T23:11:23.134Z,101367.51
2018-11-27T23:13:53.084Z,101364.08
2018-11-27T23:16:23.053Z,101369.23
2018-11-27T23:18:52.959Z,101370.11
2018-11-27T23:21:25.201Z,101369.68
2018-11-27T23:23:55.694Z,101361.95
2018-11-27T23:26:25.907Z,101355.50
2018-11-27T23:28:56.883Z,101358.47
2018-11-27T23:31:26.918Z,101368.33
2018-11-27T23:33:56.919Z,101364.45
2018-11-27T23:36:26.844Z,101370.88
2018-11-27T23:38:56.876Z,101374.30
2018-11-27T23:41:43.771Z,101377.26
2018-11-27T23:44:13.657Z,101367.34
2018-11-27T23:46:43.819Z,101359.60
2018-11-27T23:49:13.793Z,101362.56
2018-11-27T23:51:43.726Z,101359.98
2018-11-27T23:54:14.839Z,101355.72
2018-11-27T23:56:48.904Z,101357.89
2018-11-27T23:59:17.995Z,101358.34
